createdAt,value
2018-06-05T00:00:21.032Z,16.07
2018-06-05T00:02:48.886Z,16.30
2018-06-05T00:05:17.135Z,16.53
2018-06-05T00:07:45.154Z,15.30
2018-06-05T00:10:12.991Z,17.10
2018-06-05T00:12:40.808Z,15.50
2018-06-05T00:15:08.639Z,15.20
2018-06-05T00:17:36.457Z,19.90
2018-06-05T00:20:04.567Z,18.90
2018-06-05T00:22:32.406Z,21.33
2018-06-05T00:25:00.231Z,17.73
2018-06-05T00:27:28.068Z,19.20
2018-06-05T00:29:55.906Z,17.03
2018-06-05T00:32:23.718Z,19.90
2018-06-05T00:34:51.552Z,24.87
2018-06-05T00:37:19.362Z,20.63
2018-06-05T00:39:47.194Z,20.37
2018-06-05T00:42:15.034Z,19.87
2018-06-05T00:44:42.870Z,16.97
2018-06-05T00:47:10.703Z,18.13
2018-06-05T00:49:38.536Z,16.93
2018-06-05T00:52:07.115Z,19.30
2018-06-05T00:54:34.922Z,19.13
2018-06-05T00:57:02.742Z,20.50
2018-06-05T00:59:30.550Z,21.03
2018-06-05T01:01:58.387Z,23.57
2018-06-05T01:04:26.200Z,20.60
2018-06-05T01:06:54.047Z,19.23
2018-06-05T01:09:21.857Z,22.53
2018-06-05T01:11:49.666Z,21.40
2018-06-05T01:14:17.496Z,22.43
2018-06-05T01:16:45.308Z,20.17
2018-06-05T01:19:13.142Z,20.27
2018-06-05T01:21:40.970Z,25.97
2018-06-05T01:24:08.801Z,21.50
2018-06-05T01:26:36.599Z,19.80
2018-06-05T01:29:04.475Z,21.90
2018-06-05T01:31:32.283Z,24.57
2018-06-05T01:34:00.082Z,23.40
2018-06-05T01:36:27.911Z,23.73
2018-06-05T01:38:55.750Z,21.83
2018-06-05T01:41:23.585Z,21.33
2018-06-05T01:43:51.410Z,29.37
2018-06-05T01:46:19.239Z,26.77
2018-06-05T01:48:47.050Z,25.57
2018-06-05T01:51:14.886Z,21.57
2018-06-05T01:53:42.697Z,24.57
2018-06-05T01:56:10.550Z,27.10
2018-06-05T01:58:38.373Z,29.50
2018-06-05T02:01:06.183Z,26.80
2018-06-05T02:03:34.006Z,24.33
2018-06-05T02:06:01.829Z,28.33
2018-06-05T02:08:29.664Z,26.20
2018-06-05T02:10:57.470Z,32.60
2018-06-05T02:13:25.270Z,26.90
2018-06-05T02:15:53.125Z,29.83
2018-06-05T02:18:20.918Z,31.93
2018-06-05T02:20:48.755Z,32.00
2018-06-05T02:23:16.613Z,28.73
2018-06-05T02:25:44.444Z,32.40
2018-06-05T02:28:12.250Z,29.97
2018-06-05T02:30:40.072Z,33.07
2018-06-05T02:33:07.927Z,25.70
2018-06-05T02:35:35.734Z,28.03
2018-06-05T02:38:03.531Z,30.30
2018-06-05T02:40:31.363Z,27.57
2018-06-05T02:42:59.172Z,30.50
2018-06-05T02:45:27.012Z,39.57
2018-06-05T02:47:54.804Z,25.60
2018-06-05T02:50:22.647Z,39.20
2018-06-05T02:52:50.439Z,27.00
2018-06-05T02:55:18.274Z,30.07
2018-06-05T02:57:46.067Z,34.63
2018-06-05T03:00:13.942Z,30.97
2018-06-05T03:02:41.737Z,38.37
2018-06-05T03:05:09.547Z,28.70
2018-06-05T03:07:37.384Z,29.70
2018-06-05T03:10:05.226Z,29.73
2018-06-05T03:12:33.046Z,41.30
2018-06-05T03:15:00.855Z,26.37
2018-06-05T03:17:28.684Z,33.23
2018-06-05T03:19:56.488Z,29.27
2018-06-05T03:22:24.330Z,34.50
2018-06-05T03:24:52.156Z,27.43
2018-06-05T03:27:20.007Z,34.50
2018-06-05T03:29:47.810Z,32.03
2018-06-05T03:32:15.615Z,33.93
2018-06-05T03:34:43.453Z,32.70
2018-06-05T03:37:11.259Z,44.97
2018-06-05T03:39:39.093Z,40.23
2018-06-05T03:42:06.932Z,36.50
2018-06-05T03:44:34.737Z,37.03
2018-06-05T03:47:02.569Z,40.10
2018-06-05T03:49:34.686Z,40.17
2018-06-05T03:52:02.522Z,32.03
2018-06-05T03:54:30.319Z,38.57
2018-06-05T03:56:58.162Z,48.70
2018-06-05T03:59:25.957Z,37.20
2018-06-05T04:01:53.785Z,33.60
2018-06-05T04:04:21.626Z,41.73
2018-06-05T04:06:49.465Z,32.47
2018-06-05T04:09:17.278Z,34.07
2018-06-05T04:11:45.080Z,34.57
2018-06-05T04:14:12.918Z,36.83
2018-06-05T04:16:40.746Z,37.47
2018-06-05T04:19:08.594Z,37.33
2018-06-05T04:21:36.407Z,32.77
2018-06-05T04:24:04.255Z,34.70
2018-06-05T04:26:32.053Z,32.53
2018-06-05T04:28:59.850Z,33.83
2018-06-05T04:31:27.683Z,28.20
2018-06-05T04:33:55.485Z,31.50
2018-06-05T04:36:23.314Z,30.33
2018-06-05T04:38:51.151Z,35.13
2018-06-05T04:41:18.950Z,40.40
2018-06-05T04:43:46.804Z,41.27
2018-06-05T04:46:14.632Z,29.60
2018-06-05T04:48:42.454Z,33.00
2018-06-05T04:51:10.261Z,31.43
2018-06-05T04:53:38.138Z,36.33
2018-06-05T04:56:05.990Z,39.50
2018-06-05T04:58:33.806Z,35.23
2018-06-05T05:01:01.626Z,36.13
2018-06-05T05:03:29.446Z,38.30
2018-06-05T05:05:57.270Z,36.50
2018-06-05T05:08:25.082Z,42.57
2018-06-05T05:10:52.923Z,33.97
2018-06-05T05:13:20.760Z,39.20
2018-06-05T05:15:48.855Z,42.40
2018-06-05T05:18:16.687Z,34.93
2018-06-05T05:20:44.553Z,38.40
2018-06-05T05:23:12.397Z,37.33
2018-06-05T05:25:40.210Z,39.53
2018-06-05T05:28:08.068Z,40.63
2018-06-05T05:30:35.883Z,34.53
2018-06-05T05:33:03.724Z,37.97
2018-06-05T05:35:31.535Z,40.00
2018-06-05T05:38:06.207Z,41.97
2018-06-05T05:40:34.054Z,40.17
2018-06-05T05:43:01.863Z,36.70
2018-06-05T05:45:29.686Z,40.80
2018-06-05T05:47:57.529Z,37.37
2018-06-05T05:50:25.383Z,36.80
2018-06-05T05:52:53.222Z,38.57
2018-06-05T05:55:21.031Z,36.13
2018-06-05T05:57:48.888Z,41.77
2018-06-05T06:00:16.732Z,40.73
2018-06-05T06:02:44.569Z,39.80
2018-06-05T06:05:12.487Z,40.53
2018-06-05T06:07:40.318Z,39.77
2018-06-05T06:10:08.158Z,38.50
2018-06-05T06:12:36.005Z,33.40
2018-06-05T06:15:03.841Z,36.57
2018-06-05T06:17:31.655Z,37.30
2018-06-05T06:19:59.516Z,40.03
2018-06-05T06:22:27.336Z,36.57
2018-06-05T06:24:55.164Z,41.60
2018-06-05T06:27:22.984Z,37.00
2018-06-05T06:29:50.974Z,38.47
2018-06-05T06:32:18.960Z,40.93
2018-06-05T06:34:46.774Z,32.83
2018-06-05T06:37:14.592Z,32.13
2018-06-05T06:39:42.434Z,40.23
2018-06-05T06:42:10.276Z,39.53
2018-06-05T06:44:38.188Z,36.90
2018-06-05T06:47:06.003Z,34.50
2018-06-05T06:49:33.842Z,33.13
2018-06-05T06:52:01.676Z,39.40
2018-06-05T06:54:29.521Z,31.80
2018-06-05T06:56:57.399Z,37.40
2018-06-05T06:59:25.217Z,35.77
2018-06-05T07:01:53.032Z,33.73
2018-06-05T07:04:20.882Z,40.73
2018-06-05T07:06:48.691Z,40.40
2018-06-05T07:09:16.524Z,39.70
2018-06-05T07:11:44.363Z,44.73
2018-06-05T07:14:12.214Z,43.00
2018-06-05T07:16:40.028Z,47.23
2018-06-05T07:19:07.834Z,39.97
2018-06-05T07:21:35.679Z,35.10
2018-06-05T07:24:03.504Z,38.03
2018-06-05T07:26:31.350Z,39.77
2018-06-05T07:28:59.211Z,46.03
2018-06-05T07:31:27.046Z,35.77
2018-06-05T07:33:54.869Z,37.40
2018-06-05T07:36:22.717Z,39.63
2018-06-05T07:38:50.526Z,41.60
2018-06-05T07:41:18.344Z,37.87
2018-06-05T07:43:46.195Z,38.27
2018-06-05T07:46:14.022Z,38.60
2018-06-05T07:48:41.872Z,41.47
2018-06-05T07:51:09.711Z,38.47
2018-06-05T07:53:37.527Z,36.50
2018-06-05T07:56:05.367Z,38.67
2018-06-05T07:58:33.184Z,36.37
2018-06-05T08:01:01.018Z,40.70
2018-06-05T08:03:28.825Z,36.83
2018-06-05T08:05:56.664Z,39.27
2018-06-05T08:08:24.487Z,33.53
2018-06-05T08:10:52.595Z,35.37
2018-06-05T08:13:20.412Z,31.90
2018-06-05T08:15:48.243Z,35.90
2018-06-05T08:18:16.052Z,30.00
2018-06-05T08:20:43.898Z,37.70
2018-06-05T08:23:11.723Z,37.47
2018-06-05T08:25:39.545Z,36.30
2018-06-05T08:28:07.386Z,34.00
2018-06-05T08:30:35.214Z,39.80
2018-06-05T08:33:03.043Z,38.23
2018-06-05T08:35:30.894Z,38.93
2018-06-05T08:37:58.711Z,32.50
2018-06-05T08:40:26.529Z,38.73
2018-06-05T08:42:54.379Z,38.27
2018-06-05T08:45:22.233Z,33.80
2018-06-05T08:47:50.047Z,34.60
2018-06-05T08:50:17.899Z,32.10
2018-06-05T08:52:45.721Z,35.07
2018-06-05T08:55:13.533Z,34.37
2018-06-05T08:57:41.374Z,29.23
2018-06-05T09:00:09.192Z,31.50
2018-06-05T09:02:37.027Z,31.60
2018-06-05T09:05:05.060Z,31.20
2018-06-05T09:07:32.875Z,31.40
2018-06-05T09:10:00.714Z,34.27
2018-06-05T09:12:28.555Z,36.17
2018-06-05T09:14:56.391Z,31.90
2018-06-05T09:17:24.218Z,28.30
2018-06-05T09:19:52.060Z,26.93
2018-06-05T09:22:19.872Z,25.90
2018-06-05T09:24:47.710Z,25.50
2018-06-05T09:27:15.670Z,25.53
2018-06-05T09:29:43.480Z,29.30
2018-06-05T09:32:11.299Z,27.83
2018-06-05T09:34:39.135Z,31.17
2018-06-05T09:37:07.011Z,25.27
2018-06-05T09:39:34.889Z,23.70
2018-06-05T09:42:02.684Z,23.47
2018-06-05T09:44:37.253Z,22.67
2018-06-05T09:47:05.105Z,21.57
2018-06-05T09:49:32.911Z,21.03
2018-06-05T09:52:00.736Z,20.83
2018-06-05T09:54:28.574Z,22.57
2018-06-05T09:56:56.396Z,18.80
2018-06-05T09:59:24.207Z,23.60
2018-06-05T10:01:52.042Z,17.90
2018-06-05T10:04:19.854Z,16.77
2018-06-05T10:06:47.694Z,18.70
2018-06-05T10:09:15.507Z,25.27
2018-06-05T10:11:43.323Z,22.30
2018-06-05T10:14:11.216Z,18.80
2018-06-05T10:16:38.962Z,17.63
2018-06-05T10:19:06.795Z,20.00
2018-06-05T10:21:34.625Z,16.50
2018-06-05T10:24:02.464Z,18.83
2018-06-05T10:26:30.331Z,16.70
2018-06-05T10:28:58.179Z,22.23
2018-06-05T10:31:26.002Z,19.20
2018-06-05T10:33:53.839Z,14.50
2018-06-05T10:36:21.655Z,15.47
2018-06-05T10:38:49.494Z,14.83
2018-06-05T10:41:17.318Z,12.90
2018-06-05T10:43:45.255Z,19.23
2018-06-05T10:46:13.070Z,17.57
2018-06-05T10:48:40.880Z,17.00
2018-06-05T10:51:08.730Z,13.33
2018-06-05T10:53:36.584Z,13.83
2018-06-05T10:56:04.411Z,13.33
2018-06-05T10:58:32.231Z,20.93
2018-06-05T11:01:00.147Z,15.37
2018-06-05T11:03:28.024Z,13.87
2018-06-05T11:05:55.850Z,14.50
2018-06-05T11:08:23.677Z,14.60
2018-06-05T11:10:51.511Z,14.17
2018-06-05T11:13:19.332Z,15.07
2018-06-05T11:15:47.170Z,15.13
2018-06-05T11:18:15.023Z,12.97
2018-06-05T11:20:42.842Z,13.60
2018-06-05T11:23:10.662Z,14.10
2018-06-05T11:25:38.495Z,11.47
2018-06-05T11:28:06.330Z,10.37
2018-06-05T11:30:34.167Z,13.10
2018-06-05T11:33:02.008Z,12.20
2018-06-05T11:35:29.837Z,11.67
2018-06-05T11:37:57.662Z,9.80
2018-06-05T11:40:25.470Z,11.67
2018-06-05T11:42:53.294Z,10.70
2018-06-05T11:45:21.114Z,12.60
2018-06-05T11:47:48.947Z,14.07
2018-06-05T11:50:16.786Z,10.83
2018-06-05T11:52:44.644Z,11.20
2018-06-05T11:55:12.454Z,13.20
2018-06-05T11:57:40.283Z,11.70
2018-06-05T12:00:08.140Z,9.90
2018-06-05T12:02:35.955Z,15.20
2018-06-05T12:05:03.783Z,10.70
2018-06-05T12:07:31.618Z,9.93
2018-06-05T12:09:59.427Z,9.73
2018-06-05T12:12:27.255Z,10.63
2018-06-05T12:14:55.079Z,10.23
2018-06-05T12:17:22.959Z,16.00
2018-06-05T12:19:50.768Z,10.30
2018-06-05T12:22:18.607Z,10.20
2018-06-05T12:24:46.458Z,11.23
2018-06-05T12:27:14.283Z,11.33
2018-06-05T12:29:42.115Z,8.57
2018-06-05T12:32:09.953Z,12.73
2018-06-05T12:34:37.783Z,11.70
2018-06-05T12:37:05.722Z,9.83
2018-06-05T12:39:33.548Z,9.00
2018-06-05T12:42:01.960Z,8.77
2018-06-05T12:44:29.851Z,7.57
2018-06-05T12:46:57.683Z,8.07
2018-06-05T12:49:25.515Z,9.23
2018-06-05T12:51:53.338Z,9.30
2018-06-05T12:54:21.143Z,8.80
2018-06-05T12:56:48.977Z,8.40
2018-06-05T12:59:16.780Z,7.93
2018-06-05T13:01:44.603Z,12.70
2018-06-05T13:04:12.429Z,7.73
2018-06-05T13:06:46.187Z,7.00
2018-06-05T13:09:14.003Z,8.47
2018-06-05T13:11:41.847Z,8.30
2018-06-05T13:14:10.491Z,7.70
2018-06-05T13:16:38.335Z,7.50
2018-06-05T13:19:06.130Z,8.17
2018-06-05T13:21:33.935Z,6.73
2018-06-05T13:24:01.763Z,8.00
2018-06-05T13:26:29.628Z,8.70
2018-06-05T13:28:57.419Z,7.33
2018-06-05T13:31:25.255Z,7.43
2018-06-05T13:33:53.091Z,7.37
2018-06-05T13:36:20.923Z,7.83
2018-06-05T13:38:48.757Z,8.33
2018-06-05T13:41:16.564Z,10.20
2018-06-05T13:43:44.428Z,7.80
2018-06-05T13:46:12.208Z,8.27
2018-06-05T13:48:40.036Z,8.17
2018-06-05T13:51:07.840Z,8.83
2018-06-05T13:53:35.664Z,8.60
2018-06-05T13:56:03.475Z,8.90
2018-06-05T13:58:31.306Z,8.27
2018-06-05T14:00:59.114Z,8.67
2018-06-05T14:03:26.910Z,9.77
2018-06-05T14:05:54.738Z,8.80
2018-06-05T14:08:22.563Z,9.43
2018-06-05T14:10:51.407Z,8.27
2018-06-05T14:13:19.238Z,9.10
2018-06-05T14:15:47.037Z,8.33
2018-06-05T14:18:14.840Z,16.23
2018-06-05T14:20:42.704Z,8.20
2018-06-05T14:23:10.471Z,7.90
2018-06-05T14:25:38.312Z,8.00
2018-06-05T14:28:06.155Z,8.10
2018-06-05T14:30:33.963Z,8.17
2018-06-05T14:33:01.799Z,9.40
2018-06-05T14:35:29.625Z,9.13
2018-06-05T14:37:57.420Z,8.93
2018-06-05T14:40:25.259Z,8.63
2018-06-05T14:42:53.061Z,10.03
2018-06-05T14:45:20.982Z,8.90
2018-06-05T14:47:48.688Z,9.50
2018-06-05T14:50:16.521Z,8.27
2018-06-05T14:52:44.326Z,7.90
2018-06-05T14:55:12.126Z,9.50
2018-06-05T14:57:39.951Z,8.43
2018-06-05T15:00:07.750Z,8.97
2018-06-05T15:02:35.592Z,8.60
2018-06-05T15:05:03.467Z,6.70
2018-06-05T15:07:31.268Z,8.37
2018-06-05T15:09:59.092Z,7.27
2018-06-05T15:12:26.923Z,6.77
2018-06-05T15:14:54.719Z,9.40
2018-06-05T15:17:22.550Z,8.00
2018-06-05T15:19:50.387Z,7.57
2018-06-05T15:22:18.200Z,7.93
2018-06-05T15:24:46.014Z,7.17
2018-06-05T15:27:13.875Z,7.33
2018-06-05T15:29:41.682Z,5.93
2018-06-05T15:32:09.499Z,6.73
2018-06-05T15:34:37.334Z,6.13
2018-06-05T15:37:05.131Z,8.20
2018-06-05T15:39:32.936Z,6.53
2018-06-05T15:42:00.767Z,6.57
2018-06-05T15:44:28.595Z,6.87
2018-06-05T15:46:56.439Z,7.13
2018-06-05T15:49:24.249Z,6.50
2018-06-05T15:51:52.074Z,6.50
2018-06-05T15:54:19.899Z,6.97
2018-06-05T15:56:47.734Z,7.17
2018-06-05T15:59:15.527Z,6.03
2018-06-05T16:01:43.354Z,8.20
2018-06-05T16:04:11.169Z,7.20
2018-06-05T16:06:38.992Z,6.17
2018-06-05T16:09:07.729Z,6.93
2018-06-05T16:11:35.558Z,7.00
2018-06-05T16:14:03.402Z,6.90
2018-06-05T16:16:31.214Z,7.87
2018-06-05T16:18:59.042Z,7.13
2018-06-05T16:21:26.875Z,6.90
2018-06-05T16:23:54.671Z,7.03
2018-06-05T16:26:22.518Z,7.83
2018-06-05T16:28:50.344Z,5.83
2018-06-05T16:31:18.133Z,7.23
2018-06-05T16:33:46.247Z,6.93
2018-06-05T16:36:14.079Z,6.43
2018-06-05T16:38:41.938Z,5.37
2018-06-05T16:41:09.930Z,5.33
2018-06-05T16:43:38.250Z,5.60
2018-06-05T16:46:06.086Z,5.50
2018-06-05T16:48:34.046Z,4.77
2018-06-05T16:51:01.911Z,4.80
2018-06-05T16:53:30.071Z,5.33
2018-06-05T16:55:57.957Z,5.53
2018-06-05T16:58:25.806Z,5.30
2018-06-05T17:00:53.601Z,6.47
2018-06-05T17:03:21.386Z,5.40
2018-06-05T17:05:49.187Z,5.97
2018-06-05T17:08:17.019Z,4.77
2018-06-05T17:10:46.424Z,4.90
2018-06-05T17:13:14.307Z,6.23
2018-06-05T17:15:42.998Z,6.00
2018-06-05T17:18:11.218Z,5.97
2018-06-05T17:20:40.280Z,6.93
2018-06-05T17:23:08.937Z,5.80
2018-06-05T17:25:37.548Z,5.53
2018-06-05T17:28:05.523Z,5.00
2018-06-05T17:30:33.374Z,4.90
2018-06-05T17:33:01.199Z,6.27
2018-06-05T17:35:28.991Z,4.93
2018-06-05T17:37:56.818Z,5.00
2018-06-05T17:40:24.700Z,6.00
2018-06-05T17:42:52.475Z,5.23
2018-06-05T17:45:20.265Z,5.73
2018-06-05T17:47:48.110Z,4.83
2018-06-05T17:50:15.963Z,6.63
2018-06-05T17:52:43.762Z,5.07
2018-06-05T17:55:11.556Z,8.97
2018-06-05T17:57:39.383Z,5.57
2018-06-05T18:00:07.191Z,5.37
2018-06-05T18:02:35.015Z,7.43
2018-06-05T18:05:11.446Z,10.07
2018-06-05T18:07:48.090Z,6.67
2018-06-05T18:10:16.297Z,5.50
2018-06-05T18:12:44.216Z,5.80
2018-06-05T18:15:12.068Z,7.47
2018-06-05T18:17:40.634Z,5.50
2018-06-05T18:20:08.429Z,5.17
2018-06-05T18:22:36.914Z,8.70
2018-06-05T18:25:04.752Z,10.27
2018-06-05T18:27:32.586Z,6.40
2018-06-05T18:30:01.396Z,7.00
2018-06-05T18:32:30.218Z,5.30
2018-06-05T18:34:58.209Z,5.17
2018-06-05T18:37:26.078Z,6.47
2018-06-05T18:39:53.854Z,6.30
2018-06-05T18:42:21.677Z,5.43
2018-06-05T18:44:49.474Z,6.03
2018-06-05T18:47:17.286Z,7.70
2018-06-05T18:49:45.116Z,6.57
2018-06-05T18:52:12.939Z,10.10
2018-06-05T18:54:40.759Z,8.63
2018-06-05T18:57:08.594Z,11.93
2018-06-05T18:59:36.427Z,7.30
2018-06-05T19:02:04.246Z,17.07
2018-06-05T19:04:32.066Z,9.53
2018-06-05T19:06:59.875Z,6.47
2018-06-05T19:09:27.716Z,8.70
2018-06-05T19:11:55.563Z,7.80
2018-06-05T19:14:23.426Z,8.63
2018-06-05T19:16:51.246Z,7.77
2018-06-05T19:19:19.083Z,12.27
2018-06-05T19:21:46.906Z,9.00
2018-06-05T19:24:14.780Z,7.03
2018-06-05T19:26:42.569Z,11.73
2018-06-05T19:29:10.425Z,7.63
2018-06-05T19:31:38.219Z,12.90
2018-06-05T19:34:06.034Z,10.70
2018-06-05T19:36:33.905Z,13.40
2018-06-05T19:39:01.711Z,12.33
2018-06-05T19:41:29.510Z,9.67
2018-06-05T19:43:57.355Z,10.20
2018-06-05T19:46:25.194Z,8.10
2018-06-05T19:48:52.982Z,8.00
2018-06-05T19:51:20.783Z,8.30
2018-06-05T19:53:48.654Z,8.23
2018-06-05T19:56:16.437Z,9.50
2018-06-05T19:58:44.268Z,9.83
2018-06-05T20:01:12.078Z,10.77
2018-06-05T20:03:39.904Z,9.40
2018-06-05T20:06:07.730Z,12.30
2018-06-05T20:08:35.546Z,9.00
2018-06-05T20:11:03.342Z,10.00
2018-06-05T20:13:31.176Z,15.70
2018-06-05T20:15:59.016Z,10.20
2018-06-05T20:18:26.825Z,10.90
2018-06-05T20:20:54.651Z,11.77
2018-06-05T20:23:22.447Z,9.43
2018-06-05T20:25:50.296Z,9.57
2018-06-05T20:28:18.098Z,9.00
2018-06-05T20:30:45.974Z,8.90
2018-06-05T20:33:13.799Z,10.60
2018-06-05T20:35:41.599Z,10.03
2018-06-05T20:38:09.498Z,11.10
2018-06-05T20:40:37.404Z,11.00
2018-06-05T20:43:05.215Z,15.00
2018-06-05T20:45:33.032Z,11.03
2018-06-05T20:48:00.876Z,10.73
2018-06-05T20:50:28.738Z,10.50
2018-06-05T20:52:56.566Z,11.83
2018-06-05T20:55:24.375Z,14.13
2018-06-05T20:57:52.223Z,13.63
2018-06-05T21:00:20.036Z,13.87
2018-06-05T21:02:47.918Z,10.50
2018-06-05T21:05:15.713Z,12.13
2018-06-05T21:07:43.535Z,12.37
2018-06-05T21:10:11.381Z,11.97
2018-06-05T21:12:39.235Z,13.57
2018-06-05T21:15:07.082Z,15.53
2018-06-05T21:17:34.898Z,12.90
2018-06-05T21:20:02.747Z,12.77
2018-06-05T21:22:30.562Z,14.17
2018-06-05T21:24:58.404Z,13.27
2018-06-05T21:27:26.216Z,16.83
2018-06-05T21:29:54.055Z,13.43
2018-06-05T21:32:21.879Z,14.17
2018-06-05T21:34:49.714Z,15.07
2018-06-05T21:37:17.527Z,18.30
2018-06-05T21:39:45.362Z,15.87
2018-06-05T21:42:13.167Z,15.13
2018-06-05T21:44:40.992Z,14.67
2018-06-05T21:47:08.800Z,15.43
2018-06-05T21:49:36.631Z,19.53
2018-06-05T21:52:04.447Z,19.00
2018-06-05T21:54:32.274Z,16.83
2018-06-05T21:57:00.080Z,19.73
2018-06-05T21:59:27.919Z,17.30
2018-06-05T22:01:55.726Z,18.63
2018-06-05T22:04:23.534Z,19.33
2018-06-05T22:06:51.367Z,17.70
2018-06-05T22:09:19.199Z,21.20
2018-06-05T22:11:47.034Z,19.93
2018-06-05T22:14:14.878Z,19.53
2018-06-05T22:16:42.706Z,24.93
2018-06-05T22:19:10.614Z,25.73
2018-06-05T22:21:38.432Z,24.13
2018-06-05T22:24:06.260Z,22.23
2018-06-05T22:26:34.094Z,21.40
2018-06-05T22:29:01.902Z,21.20
2018-06-05T22:31:29.734Z,21.00
2018-06-05T22:33:57.559Z,20.77
2018-06-05T22:36:25.426Z,20.37
2018-06-05T22:38:53.249Z,23.50
2018-06-05T22:41:21.081Z,24.87
2018-06-05T22:43:48.919Z,21.57
2018-06-05T22:46:16.747Z,22.90
2018-06-05T22:48:44.558Z,20.87
2018-06-05T22:51:12.393Z,21.03
2018-06-05T22:53:40.399Z,23.27
2018-06-05T22:56:08.232Z,19.47
2018-06-05T22:58:36.049Z,21.80
2018-06-05T23:01:03.883Z,19.80
2018-06-05T23:03:31.690Z,23.33
2018-06-05T23:05:59.496Z,22.43
2018-06-05T23:08:27.318Z,25.53
2018-06-05T23:10:55.123Z,23.93
2018-06-05T23:13:22.949Z,21.17
2018-06-05T23:15:50.755Z,23.80
2018-06-05T23:18:18.598Z,20.63
2018-06-05T23:20:46.419Z,23.53
2018-06-05T23:23:14.239Z,25.60
2018-06-05T23:25:42.087Z,21.40
2018-06-05T23:28:09.887Z,20.80
2018-06-05T23:30:37.735Z,23.57
2018-06-05T23:33:05.569Z,24.80
2018-06-05T23:35:33.376Z,23.57
2018-06-05T23:38:01.219Z,25.00
2018-06-05T23:40:29.026Z,22.40
2018-06-05T23:42:56.856Z,23.60
2018-06-05T23:45:24.667Z,26.23
2018-06-05T23:47:52.649Z,24.60
2018-06-05T23:50:20.506Z,24.43
2018-06-05T23:52:48.343Z,22.77
2018-06-05T23:55:16.170Z,23.00
2018-06-05T23:57:43.994Z,26.40
